sensor_id;sensor_type;location;lat;lon;timestamp;temperature;humidity
1602;DHT22;794;48.592;9.634;2022-12-18T00:09:26;-6.40;1.00
1602;DHT22;794;48.592;9.634;2022-12-18T00:16:51;-6.20;1.00
1602;DHT22;794;48.592;9.634;2022-12-18T00:19:19;-6.50;1.00
1602;DHT22;794;48.592;9.634;2022-12-18T00:21:48;-6.40;1.00
1602;DHT22;794;48.592;9.634;2022-12-18T00:24:16;-6.50;1.00
1602;DHT22;794;48.592;9.634;2022-12-18T00:29:13;-6.60;1.00
1602;DHT22;794;48.592;9.634;2022-12-18T00:31:42;-6.20;1.00
1602;DHT22;794;48.592;9.634;2022-12-18T00:34:12;-6.50;1.00
1602;DHT22;794;48.592;9.634;2022-12-18T00:36:40;-3.60;1.00
1602;DHT22;794;48.592;9.634;2022-12-18T00:39:10;-6.40;1.00
1602;DHT22;794;48.592;9.634;2022-12-18T00:44:26;-6.60;1.00
1602;DHT22;794;48.592;9.634;2022-12-18T00:49:23;-7.50;1.00
1602;DHT22;794;48.592;9.634;2022-12-18T00:51:51;-6.60;1.00
1602;DHT22;794;48.592;9.634;2022-12-18T01:06:37;-6.40;1.00
1602;DHT22;794;48.592;9.634;2022-12-18T01:09:04;-6.60;1.00
1602;DHT22;794;48.592;9.634;2022-12-18T01:16:28;-6.80;1.00
1602;DHT22;794;48.592;9.634;2022-12-18T01:18:56;-6.70;1.00
1602;DHT22;794;48.592;9.634;2022-12-18T01:21:24;-6.60;1.00
1602;DHT22;794;48.592;9.634;2022-12-18T01:23:54;-4.30;1.00
1602;DHT22;794;48.592;9.634;2022-12-18T01:31:18;-6.70;1.00
1602;DHT22;794;48.592;9.634;2022-12-18T01:33:49;-6.70;1.00
1602;DHT22;794;48.592;9.634;2022-12-18T01:36:19;-6.70;1.00
1602;DHT22;794;48.592;9.634;2022-12-18T01:41:18;-7.30;1.00
1602;DHT22;794;48.592;9.634;2022-12-18T01:43:49;-6.60;1.00
1602;DHT22;794;48.592;9.634;2022-12-18T01:46:18;-6.50;1.00
1602;DHT22;794;48.592;9.634;2022-12-18T01:48:48;-4.10;1.00
1602;DHT22;794;48.592;9.634;2022-12-18T01:51:17;-3.80;1.00
1602;DHT22;794;48.592;9.634;2022-12-18T01:53:45;-6.50;1.00
1602;DHT22;794;48.592;9.634;2022-12-18T01:56:16;-4.60;1.00
1602;DHT22;794;48.592;9.634;2022-12-18T01:58:50;-6.50;1.00
1602;DHT22;794;48.592;9.634;2022-12-18T02:01:21;-6.40;1.00
1602;DHT22;794;48.592;9.634;2022-12-18T02:03:50;-6.50;1.00
1602;DHT22;794;48.592;9.634;2022-12-18T02:06:23;-6.60;1.00
1602;DHT22;794;48.592;9.634;2022-12-18T02:09:02;-6.50;1.00
1602;DHT22;794;48.592;9.634;2022-12-18T02:11:40;-6.70;1.00
1602;DHT22;794;48.592;9.634;2022-12-18T02:14:18;-6.50;1.00
1602;DHT22;794;48.592;9.634;2022-12-18T02:16:52;-6.50;1.00
1602;DHT22;794;48.592;9.634;2022-12-18T02:19:44;-6.70;1.00
1602;DHT22;794;48.592;9.634;2022-12-18T02:22:26;-6.20;1.00
1602;DHT22;794;48.592;9.634;2022-12-18T02:25:05;-6.40;1.00
1602;DHT22;794;48.592;9.634;2022-12-18T02:27:41;-5.70;1.00
1602;DHT22;794;48.592;9.634;2022-12-18T02:30:12;-6.20;1.00
1602;DHT22;794;48.592;9.634;2022-12-18T02:32:45;-6.30;1.00
1602;DHT22;794;48.592;9.634;2022-12-18T02:35:19;-6.40;1.00
1602;DHT22;794;48.592;9.634;2022-12-18T02:37:49;-6.40;1.00
1602;DHT22;794;48.592;9.634;2022-12-18T02:40:18;-6.40;1.00
1602;DHT22;794;48.592;9.634;2022-12-18T02:42:48;-6.20;1.00
1602;DHT22;794;48.592;9.634;2022-12-18T02:45:19;-6.20;1.00
1602;DHT22;794;48.592;9.634;2022-12-18T02:47:48;-6.00;1.00
1602;DHT22;794;48.592;9.634;2022-12-18T02:50:21;-5.90;1.00
1602;DHT22;794;48.592;9.634;2022-12-18T02:52:59;-6.10;1.00
1602;DHT22;794;48.592;9.634;2022-12-18T02:55:35;-6.20;1.00
1602;DHT22;794;48.592;9.634;2022-12-18T02:58:11;-5.70;1.00
1602;DHT22;794;48.592;9.634;2022-12-18T03:00:43;-5.70;1.00
1602;DHT22;794;48.592;9.634;2022-12-18T03:03:19;-5.70;1.00
1602;DHT22;794;48.592;9.634;2022-12-18T03:05:53;-5.80;1.00
1602;DHT22;794;48.592;9.634;2022-12-18T03:08:22;-5.70;1.00
1602;DHT22;794;48.592;9.634;2022-12-18T03:10:55;-4.10;1.00
1602;DHT22;794;48.592;9.634;2022-12-18T03:13:30;-5.70;1.00
1602;DHT22;794;48.592;9.634;2022-12-18T03:16:00;-4.50;1.00
1602;DHT22;794;48.592;9.634;2022-12-18T03:18:35;-5.80;1.00
1602;DHT22;794;48.592;9.634;2022-12-18T03:21:06;-5.70;1.00
1602;DHT22;794;48.592;9.634;2022-12-18T03:23:40;-6.00;1.00
1602;DHT22;794;48.592;9.634;2022-12-18T03:26:10;-5.70;1.00
1602;DHT22;794;48.592;9.634;2022-12-18T03:28:46;-6.00;1.00
1602;DHT22;794;48.592;9.634;2022-12-18T03:31:15;-3.30;1.00
1602;DHT22;794;48.592;9.634;2022-12-18T03:33:47;-6.00;1.00
1602;DHT22;794;48.592;9.634;2022-12-18T03:36:19;-5.90;1.00
1602;DHT22;794;48.592;9.634;2022-12-18T03:38:48;-2.90;1.00
1602;DHT22;794;48.592;9.634;2022-12-18T03:41:19;-3.10;1.00
1602;DHT22;794;48.592;9.634;2022-12-18T03:43:54;-5.80;1.00
1602;DHT22;794;48.592;9.634;2022-12-18T03:46:26;-5.80;1.00
1602;DHT22;794;48.592;9.634;2022-12-18T03:49:01;-4.30;1.00
1602;DHT22;794;48.592;9.634;2022-12-18T03:51:33;-4.70;1.00
1602;DHT22;794;48.592;9.634;2022-12-18T03:54:05;-5.50;1.00
1602;DHT22;794;48.592;9.634;2022-12-18T03:56:36;-8.10;1.00
1602;DHT22;794;48.592;9.634;2022-12-18T03:59:06;-5.70;1.00
1602;DHT22;794;48.592;9.634;2022-12-18T04:01:39;-2.80;1.00
1602;DHT22;794;48.592;9.634;2022-12-18T04:04:08;-5.70;1.00
1602;DHT22;794;48.592;9.634;2022-12-18T04:06:39;-5.70;1.00
1602;DHT22;794;48.592;9.634;2022-12-18T04:09:07;-2.60;1.00
1602;DHT22;794;48.592;9.634;2022-12-18T04:11:34;-2.50;1.00
1602;DHT22;794;48.592;9.634;2022-12-18T04:14:01;-2.00;1.00
1602;DHT22;794;48.592;9.634;2022-12-18T04:16:32;-5.80;1.00
1602;DHT22;794;48.592;9.634;2022-12-18T04:21:27;-5.60;1.00
1602;DHT22;794;48.592;9.634;2022-12-18T04:33:47;-4.60;1.00
1602;DHT22;794;48.592;9.634;2022-12-18T04:46:08;-5.60;1.00
1602;DHT22;794;48.592;9.634;2022-12-18T04:48:37;-2.20;1.00
1602;DHT22;794;48.592;9.634;2022-12-18T04:51:06;-5.60;1.00
1602;DHT22;794;48.592;9.634;2022-12-18T04:53:34;-4.50;1.00
1602;DHT22;794;48.592;9.634;2022-12-18T04:56:06;-3.50;1.00
1602;DHT22;794;48.592;9.634;2022-12-18T04:58:37;-5.40;1.00
1602;DHT22;794;48.592;9.634;2022-12-18T05:03:33;-5.30;1.00
1602;DHT22;794;48.592;9.634;2022-12-18T05:08:29;-5.40;1.00
1602;DHT22;794;48.592;9.634;2022-12-18T05:11:00;-5.30;1.00
1602;DHT22;794;48.592;9.634;2022-12-18T05:13:27;-3.40;1.00
1602;DHT22;794;48.592;9.634;2022-12-18T05:18:25;-5.60;1.00
1602;DHT22;794;48.592;9.634;2022-12-18T05:20:54;-2.20;1.00
1602;DHT22;794;48.592;9.634;2022-12-18T05:23:23;-1.80;1.00
1602;DHT22;794;48.592;9.634;2022-12-18T05:25:57;-5.50;1.00
1602;DHT22;794;48.592;9.634;2022-12-18T05:28:27;-1.80;1.00
1602;DHT22;794;48.592;9.634;2022-12-18T05:30:57;-5.40;1.00
1602;DHT22;794;48.592;9.634;2022-12-18T05:33:27;-5.40;1.00
1602;DHT22;794;48.592;9.634;2022-12-18T05:35:57;-5.40;1.00
1602;DHT22;794;48.592;9.634;2022-12-18T05:38:35;-5.50;1.00
1602;DHT22;794;48.592;9.634;2022-12-18T05:41:04;-5.50;1.00
1602;DHT22;794;48.592;9.634;2022-12-18T05:43:34;-2.00;1.00
1602;DHT22;794;48.592;9.634;2022-12-18T05:46:04;-5.40;1.00
1602;DHT22;794;48.592;9.634;2022-12-18T05:51:05;-5.40;1.00
1602;DHT22;794;48.592;9.634;2022-12-18T05:53:32;-7.30;1.00
1602;DHT22;794;48.592;9.634;2022-12-18T05:56:03;-3.70;1.00
1602;DHT22;794;48.592;9.634;2022-12-18T05:58:34;-5.30;1.00
1602;DHT22;794;48.592;9.634;2022-12-18T06:01:07;-5.50;1.00
1602;DHT22;794;48.592;9.634;2022-12-18T06:03:35;-5.30;1.00
1602;DHT22;794;48.592;9.634;2022-12-18T06:06:12;-3.10;1.00
1602;DHT22;794;48.592;9.634;2022-12-18T06:08:40;-5.30;1.00
1602;DHT22;794;48.592;9.634;2022-12-18T06:11:09;-5.40;1.00
1602;DHT22;794;48.592;9.634;2022-12-18T06:16:05;-5.30;1.00
1602;DHT22;794;48.592;9.634;2022-12-18T06:26:04;-5.30;1.00
1602;DHT22;794;48.592;9.634;2022-12-18T06:28:33;-5.40;1.00
1602;DHT22;794;48.592;9.634;2022-12-18T06:31:02;-2.50;1.00
1602;DHT22;794;48.592;9.634;2022-12-18T06:36:00;-5.30;1.00
1602;DHT22;794;48.592;9.634;2022-12-18T06:45:57;-5.50;1.00
1602;DHT22;794;48.592;9.634;2022-12-18T06:53:22;-5.60;1.00
1602;DHT22;794;48.592;9.634;2022-12-18T06:55:50;-5.40;1.00
1602;DHT22;794;48.592;9.634;2022-12-18T06:58:19;-5.50;1.00
1602;DHT22;794;48.592;9.634;2022-12-18T07:03:14;-5.50;1.00
1602;DHT22;794;48.592;9.634;2022-12-18T07:08:10;-5.80;1.00
1602;DHT22;794;48.592;9.634;2022-12-18T07:10:41;-5.70;1.00
1602;DHT22;794;48.592;9.634;2022-12-18T07:20:33;-5.90;1.00
1602;DHT22;794;48.592;9.634;2022-12-18T07:23:01;-3.50;1.00
1602;DHT22;794;48.592;9.634;2022-12-18T07:30:24;-5.60;1.00
1602;DHT22;794;48.592;9.634;2022-12-18T07:37:48;-5.60;1.00
1602;DHT22;794;48.592;9.634;2022-12-18T07:40:16;-2.80;1.00
1602;DHT22;794;48.592;9.634;2022-12-18T07:50:07;-5.80;1.00
1602;DHT22;794;48.592;9.634;2022-12-18T07:55:06;-5.60;1.00
1602;DHT22;794;48.592;9.634;2022-12-18T08:00:04;-5.10;1.00
1602;DHT22;794;48.592;9.634;2022-12-18T08:02:32;-5.20;1.00
1602;DHT22;794;48.592;9.634;2022-12-18T08:07:27;-5.40;1.00
1602;DHT22;794;48.592;9.634;2022-12-18T08:09:57;-2.90;1.00
1602;DHT22;794;48.592;9.634;2022-12-18T08:15:55;-4.90;1.00
1602;DHT22;794;48.592;9.634;2022-12-18T08:18:23;-2.40;1.00
1602;DHT22;794;48.592;9.634;2022-12-18T08:20:52;-5.20;1.00
1602;DHT22;794;48.592;9.634;2022-12-18T08:23:21;-4.90;1.00
1602;DHT22;794;48.592;9.634;2022-12-18T08:25:49;-5.10;1.00
1602;DHT22;794;48.592;9.634;2022-12-18T08:28:18;-4.10;1.00
1602;DHT22;794;48.592;9.634;2022-12-18T08:30:51;-5.20;1.00
1602;DHT22;794;48.592;9.634;2022-12-18T08:33:19;-1.70;1.00
1602;DHT22;794;48.592;9.634;2022-12-18T08:35:48;-2.80;1.00
1602;DHT22;794;48.592;9.634;2022-12-18T08:38:16;-4.60;1.00
1602;DHT22;794;48.592;9.634;2022-12-18T08:40:45;-2.60;1.00
1602;DHT22;794;48.592;9.634;2022-12-18T08:43:13;-4.80;1.00
1602;DHT22;794;48.592;9.634;2022-12-18T08:46:02;-2.10;1.00
1602;DHT22;794;48.592;9.634;2022-12-18T08:51:00;-4.30;1.00
1602;DHT22;794;48.592;9.634;2022-12-18T08:53:29;-3.10;1.00
1602;DHT22;794;48.592;9.634;2022-12-18T08:55:57;-2.20;1.00
1602;DHT22;794;48.592;9.634;2022-12-18T08:58:26;-1.00;1.00
1602;DHT22;794;48.592;9.634;2022-12-18T09:00:59;-1.40;1.00
1602;DHT22;794;48.592;9.634;2022-12-18T09:03:31;-1.50;1.00
1602;DHT22;794;48.592;9.634;2022-12-18T09:05:59;-3.60;1.00
1602;DHT22;794;48.592;9.634;2022-12-18T09:08:27;-2.10;1.00
1602;DHT22;794;48.592;9.634;2022-12-18T09:10:56;-4.10;1.00
1602;DHT22;794;48.592;9.634;2022-12-18T09:13:25;-5.30;1.00
1602;DHT22;794;48.592;9.634;2022-12-18T09:15:54;-4.00;1.00
1602;DHT22;794;48.592;9.634;2022-12-18T09:18:23;-2.40;1.00
1602;DHT22;794;48.592;9.634;2022-12-18T09:20:51;-2.00;1.00
1602;DHT22;794;48.592;9.634;2022-12-18T09:23:22;-4.00;1.00
1602;DHT22;794;48.592;9.634;2022-12-18T09:30:49;-3.90;1.00
1602;DHT22;794;48.592;9.634;2022-12-18T09:33:17;-3.80;1.00
1602;DHT22;794;48.592;9.634;2022-12-18T09:35:46;-3.70;1.00
1602;DHT22;794;48.592;9.634;2022-12-18T09:38:17;-2.50;1.00
1602;DHT22;794;48.592;9.634;2022-12-18T09:40:49;-1.20;1.00
1602;DHT22;794;48.592;9.634;2022-12-18T09:43:19;-0.80;1.00
1602;DHT22;794;48.592;9.634;2022-12-18T09:45:51;-3.50;1.00
1602;DHT22;794;48.592;9.634;2022-12-18T09:48:22;-2.70;1.00
1602;DHT22;794;48.592;9.634;2022-12-18T09:50:51;-4.90;1.00
1602;DHT22;794;48.592;9.634;2022-12-18T09:53:24;-2.90;1.00
1602;DHT22;794;48.592;9.634;2022-12-18T09:55:54;-1.50;1.00
1602;DHT22;794;48.592;9.634;2022-12-18T09:58:28;-0.60;1.00
1602;DHT22;794;48.592;9.634;2022-12-18T10:00:56;0.00;1.00
1602;DHT22;794;48.592;9.634;2022-12-18T10:05:58;-3.30;1.00
1602;DHT22;794;48.592;9.634;2022-12-18T10:08:36;-3.30;1.00
1602;DHT22;794;48.592;9.634;2022-12-18T10:11:22;-0.90;1.00
1602;DHT22;794;48.592;9.634;2022-12-18T10:13:56;-0.10;1.00
1602;DHT22;794;48.592;9.634;2022-12-18T10:16:30;-2.80;1.00
1602;DHT22;794;48.592;9.634;2022-12-18T10:19:15;-0.50;1.00
1602;DHT22;794;48.592;9.634;2022-12-18T10:21:53;-4.60;1.00
1602;DHT22;794;48.592;9.634;2022-12-18T10:24:32;0.00;1.00
1602;DHT22;794;48.592;9.634;2022-12-18T10:27:12;-1.70;1.00
1602;DHT22;794;48.592;9.634;2022-12-18T10:29:41;-1.30;1.00
1602;DHT22;794;48.592;9.634;2022-12-18T10:32:14;-2.00;1.00
1602;DHT22;794;48.592;9.634;2022-12-18T10:34:45;-1.70;1.00
1602;DHT22;794;48.592;9.634;2022-12-18T10:37:17;-2.40;1.00
1602;DHT22;794;48.592;9.634;2022-12-18T10:40:06;-2.00;1.00
1602;DHT22;794;48.592;9.634;2022-12-18T10:42:37;-4.70;1.00
1602;DHT22;794;48.592;9.634;2022-12-18T10:45:09;-2.60;1.00
1602;DHT22;794;48.592;9.634;2022-12-18T10:47:40;-1.70;1.00
1602;DHT22;794;48.592;9.634;2022-12-18T10:50:19;-0.30;1.00
1602;DHT22;794;48.592;9.634;2022-12-18T10:52:55;-2.30;1.00
1602;DHT22;794;48.592;9.634;2022-12-18T10:55:26;0.50;1.00
1602;DHT22;794;48.592;9.634;2022-12-18T10:58:13;0.20;1.00
1602;DHT22;794;48.592;9.634;2022-12-18T11:03:31;-2.00;1.00
1602;DHT22;794;48.592;9.634;2022-12-18T11:06:08;-1.60;1.00
1602;DHT22;794;48.592;9.634;2022-12-18T11:11:15;-2.10;1.00
1602;DHT22;794;48.592;9.634;2022-12-18T11:13:52;-1.40;1.00
1602;DHT22;794;48.592;9.634;2022-12-18T11:18:53;-2.00;1.00
1602;DHT22;794;48.592;9.634;2022-12-18T11:21:21;1.20;1.00
1602;DHT22;794;48.592;9.634;2022-12-18T11:23:50;0.70;1.00
1602;DHT22;794;48.592;9.634;2022-12-18T11:26:20;-1.10;1.00
1602;DHT22;794;48.592;9.634;2022-12-18T11:28:50;-3.30;1.00
1602;DHT22;794;48.592;9.634;2022-12-18T11:31:24;0.90;1.00
1602;DHT22;794;48.592;9.634;2022-12-18T11:33:58;1.00;1.00
1602;DHT22;794;48.592;9.634;2022-12-18T11:36:30;-1.50;1.00
1602;DHT22;794;48.592;9.634;2022-12-18T11:39:11;1.70;1.00
1602;DHT22;794;48.592;9.634;2022-12-18T11:41:48;1.20;1.00
1602;DHT22;794;48.592;9.634;2022-12-18T11:44:38;-1.50;1.00
1602;DHT22;794;48.592;9.634;2022-12-18T11:47:13;-3.10;1.00
1602;DHT22;794;48.592;9.634;2022-12-18T11:52:15;-1.80;1.00
1602;DHT22;794;48.592;9.634;2022-12-18T11:57:17;-1.80;1.00
1602;DHT22;794;48.592;9.634;2022-12-18T11:59:55;0.10;1.00
1602;DHT22;794;48.592;9.634;2022-12-18T12:02:38;-2.10;1.00
1602;DHT22;794;48.592;9.634;2022-12-18T12:05:25;-1.90;1.00
1602;DHT22;794;48.592;9.634;2022-12-18T12:08:01;-2.20;1.00
1602;DHT22;794;48.592;9.634;2022-12-18T12:10:39;-2.10;1.00
1602;DHT22;794;48.592;9.634;2022-12-18T12:13:22;0.80;1.00
1602;DHT22;794;48.592;9.634;2022-12-18T12:16:00;-2.00;1.00
1602;DHT22;794;48.592;9.634;2022-12-18T12:18:36;1.00;1.00
1602;DHT22;794;48.592;9.634;2022-12-18T12:21:14;-2.00;1.00
1602;DHT22;794;48.592;9.634;2022-12-18T12:23:51;0.10;1.00
1602;DHT22;794;48.592;9.634;2022-12-18T12:26:28;-0.20;1.00
1602;DHT22;794;48.592;9.634;2022-12-18T12:29:21;1.00;1.00
1602;DHT22;794;48.592;9.634;2022-12-18T12:32:00;-2.20;1.00
1602;DHT22;794;48.592;9.634;2022-12-18T12:34:33;-2.60;1.00
1602;DHT22;794;48.592;9.634;2022-12-18T12:37:12;0.10;1.00
1602;DHT22;794;48.592;9.634;2022-12-18T12:39:44;-1.90;1.00
1602;DHT22;794;48.592;9.634;2022-12-18T12:42:29;-2.40;1.00
1602;DHT22;794;48.592;9.634;2022-12-18T12:45:20;-4.20;1.00
1602;DHT22;794;48.592;9.634;2022-12-18T12:47:50;-2.70;1.00
1602;DHT22;794;48.592;9.634;2022-12-18T12:50:21;-2.70;1.00
1602;DHT22;794;48.592;9.634;2022-12-18T12:52:51;-2.30;1.00
1602;DHT22;794;48.592;9.634;2022-12-18T12:55:21;-2.40;1.00
1602;DHT22;794;48.592;9.634;2022-12-18T12:57:57;-0.30;1.00
1602;DHT22;794;48.592;9.634;2022-12-18T13:00:34;-2.60;1.00
1602;DHT22;794;48.592;9.634;2022-12-18T13:03:08;-2.90;1.00
1602;DHT22;794;48.592;9.634;2022-12-18T13:05:42;-2.90;1.00
1602;DHT22;794;48.592;9.634;2022-12-18T13:08:23;-0.10;1.00
1602;DHT22;794;48.592;9.634;2022-12-18T13:13:48;-2.70;1.00
1602;DHT22;794;48.592;9.634;2022-12-18T13:16:21;-2.50;1.00
1602;DHT22;794;48.592;9.634;2022-12-18T13:18:50;0.70;1.00
1602;DHT22;794;48.592;9.634;2022-12-18T13:21:23;-2.60;1.00
1602;DHT22;794;48.592;9.634;2022-12-18T13:23:54;-2.50;1.00
1602;DHT22;794;48.592;9.634;2022-12-18T13:26:32;0.00;1.00
1602;DHT22;794;48.592;9.634;2022-12-18T13:29:00;0.40;1.00
1602;DHT22;794;48.592;9.634;2022-12-18T13:34:38;-2.40;1.00
1602;DHT22;794;48.592;9.634;2022-12-18T13:37:40;-0.80;1.00
1602;DHT22;794;48.592;9.634;2022-12-18T13:43:30;-1.60;1.00
1602;DHT22;794;48.592;9.634;2022-12-18T13:46:06;-2.20;1.00
1602;DHT22;794;48.592;9.634;2022-12-18T13:48:57;-2.90;1.00
1602;DHT22;794;48.592;9.634;2022-12-18T13:51:31;-3.00;1.00
1602;DHT22;794;48.592;9.634;2022-12-18T13:54:01;0.00;1.00
1602;DHT22;794;48.592;9.634;2022-12-18T13:56:33;0.00;1.00
1602;DHT22;794;48.592;9.634;2022-12-18T13:59:12;-4.30;1.00
1602;DHT22;794;48.592;9.634;2022-12-18T14:01:50;-2.20;1.00
1602;DHT22;794;48.592;9.634;2022-12-18T14:04:24;-0.30;1.00
1602;DHT22;794;48.592;9.634;2022-12-18T14:06:56;-2.60;1.00
1602;DHT22;794;48.592;9.634;2022-12-18T14:09:27;-2.90;1.00
1602;DHT22;794;48.592;9.634;2022-12-18T14:15:25;-3.10;1.00
1602;DHT22;794;48.592;9.634;2022-12-18T14:17:58;-3.30;1.00
1602;DHT22;794;48.592;9.634;2022-12-18T14:20:27;-3.20;1.00
1602;DHT22;794;48.592;9.634;2022-12-18T14:22:59;-0.60;1.00
1602;DHT22;794;48.592;9.634;2022-12-18T14:25:28;-3.20;1.00
1602;DHT22;794;48.592;9.634;2022-12-18T14:28:08;0.40;1.00
1602;DHT22;794;48.592;9.634;2022-12-18T14:30:40;-3.00;1.00
1602;DHT22;794;48.592;9.634;2022-12-18T14:33:10;-3.70;1.00
1602;DHT22;794;48.592;9.634;2022-12-18T14:35:42;-3.50;1.00
1602;DHT22;794;48.592;9.634;2022-12-18T14:38:26;-3.60;1.00
1602;DHT22;794;48.592;9.634;2022-12-18T14:40:58;-3.60;1.00
1602;DHT22;794;48.592;9.634;2022-12-18T14:43:27;-3.80;1.00
1602;DHT22;794;48.592;9.634;2022-12-18T14:45:55;-3.90;1.00
1602;DHT22;794;48.592;9.634;2022-12-18T14:48:33;-3.80;1.00
1602;DHT22;794;48.592;9.634;2022-12-18T14:51:06;-3.80;1.00
1602;DHT22;794;48.592;9.634;2022-12-18T14:53:37;-3.70;1.00
1602;DHT22;794;48.592;9.634;2022-12-18T14:56:15;-1.60;1.00
1602;DHT22;794;48.592;9.634;2022-12-18T14:58:50;-1.50;1.00
1602;DHT22;794;48.592;9.634;2022-12-18T15:01:21;-1.70;1.00
1602;DHT22;794;48.592;9.634;2022-12-18T15:03:50;-1.40;1.00
1602;DHT22;794;48.592;9.634;2022-12-18T15:06:26;-4.00;1.00
1602;DHT22;794;48.592;9.634;2022-12-18T15:08:55;-2.30;1.00
1602;DHT22;794;48.592;9.634;2022-12-18T15:11:27;-0.50;1.00
1602;DHT22;794;48.592;9.634;2022-12-18T15:16:24;-4.10;1.00
1602;DHT22;794;48.592;9.634;2022-12-18T15:18:53;-4.00;1.00
1602;DHT22;794;48.592;9.634;2022-12-18T15:21:21;-4.40;1.00
1602;DHT22;794;48.592;9.634;2022-12-18T15:23:51;-3.50;1.00
1602;DHT22;794;48.592;9.634;2022-12-18T15:26:21;-0.70;1.00
1602;DHT22;794;48.592;9.634;2022-12-18T15:28:50;-4.20;1.00
1602;DHT22;794;48.592;9.634;2022-12-18T15:31:29;-3.30;1.00
1602;DHT22;794;48.592;9.634;2022-12-18T15:34:10;-0.90;1.00
1602;DHT22;794;48.592;9.634;2022-12-18T15:36:38;-4.40;1.00
1602;DHT22;794;48.592;9.634;2022-12-18T15:41:35;-4.60;1.00
1602;DHT22;794;48.592;9.634;2022-12-18T15:44:21;-2.00;1.00
1602;DHT22;794;48.592;9.634;2022-12-18T15:46:49;-2.00;1.00
1602;DHT22;794;48.592;9.634;2022-12-18T15:49:17;-4.60;1.00
1602;DHT22;794;48.592;9.634;2022-12-18T15:51:53;-4.40;1.00
1602;DHT22;794;48.592;9.634;2022-12-18T15:54:22;-4.40;1.00
1602;DHT22;794;48.592;9.634;2022-12-18T15:57:08;-4.40;1.00
1602;DHT22;794;48.592;9.634;2022-12-18T16:02:22;-4.10;1.00
1602;DHT22;794;48.592;9.634;2022-12-18T16:04:50;-2.80;1.00
1602;DHT22;794;48.592;9.634;2022-12-18T16:07:17;-2.30;1.00
1602;DHT22;794;48.592;9.634;2022-12-18T16:09:48;-4.70;1.00
1602;DHT22;794;48.592;9.634;2022-12-18T16:12:19;-4.60;1.00
1602;DHT22;794;48.592;9.634;2022-12-18T16:14:50;-4.60;1.00
1602;DHT22;794;48.592;9.634;2022-12-18T16:17:18;-4.40;1.00
1602;DHT22;794;48.592;9.634;2022-12-18T16:22:19;-4.60;1.00
1602;DHT22;794;48.592;9.634;2022-12-18T16:29:44;-4.60;1.00
1602;DHT22;794;48.592;9.634;2022-12-18T16:32:16;-4.60;1.00
1602;DHT22;794;48.592;9.634;2022-12-18T16:37:13;-4.70;1.00
1602;DHT22;794;48.592;9.634;2022-12-18T16:39:43;-4.70;1.00
1602;DHT22;794;48.592;9.634;2022-12-18T16:42:13;-4.80;1.00
1602;DHT22;794;48.592;9.634;2022-12-18T16:44:47;-4.30;1.00
1602;DHT22;794;48.592;9.634;2022-12-18T16:47:15;-2.20;1.00
1602;DHT22;794;48.592;9.634;2022-12-18T16:59:33;-4.90;1.00
1602;DHT22;794;48.592;9.634;2022-12-18T17:02:02;-5.20;1.00
1602;DHT22;794;48.592;9.634;2022-12-18T17:04:31;-5.20;1.00
1602;DHT22;794;48.592;9.634;2022-12-18T17:11:55;-4.90;1.00
1602;DHT22;794;48.592;9.634;2022-12-18T17:14:23;-4.90;1.00
1602;DHT22;794;48.592;9.634;2022-12-18T17:16:53;-3.60;1.00
1602;DHT22;794;48.592;9.634;2022-12-18T17:19:23;-4.80;1.00
1602;DHT22;794;48.592;9.634;2022-12-18T17:21:51;-4.70;1.00
1602;DHT22;794;48.592;9.634;2022-12-18T17:24:20;-1.40;1.00
1602;DHT22;794;48.592;9.634;2022-12-18T17:26:48;-4.90;1.00
1602;DHT22;794;48.592;9.634;2022-12-18T17:29:17;-3.20;1.00
1602;DHT22;794;48.592;9.634;2022-12-18T17:36:44;-4.90;1.00
1602;DHT22;794;48.592;9.634;2022-12-18T17:39:16;-4.70;1.00
1602;DHT22;794;48.592;9.634;2022-12-18T17:46:40;-4.90;1.00
1602;DHT22;794;48.592;9.634;2022-12-18T17:49:09;-4.60;1.00
1602;DHT22;794;48.592;9.634;2022-12-18T17:54:05;-4.90;1.00
1602;DHT22;794;48.592;9.634;2022-12-18T17:56:34;-4.60;1.00
1602;DHT22;794;48.592;9.634;2022-12-18T17:59:02;-2.90;1.00
1602;DHT22;794;48.592;9.634;2022-12-18T18:03:59;-4.50;1.00
1602;DHT22;794;48.592;9.634;2022-12-18T18:06:27;-4.40;1.00
1602;DHT22;794;48.592;9.634;2022-12-18T18:08:59;-6.30;1.00
1602;DHT22;794;48.592;9.634;2022-12-18T18:11:33;-2.40;1.00
1602;DHT22;794;48.592;9.634;2022-12-18T18:14:20;-4.20;1.00
1602;DHT22;794;48.592;9.634;2022-12-18T18:16:50;-2.00;1.00
1602;DHT22;794;48.592;9.634;2022-12-18T18:19:20;-2.60;1.00
1602;DHT22;794;48.592;9.634;2022-12-18T18:21:49;-4.20;1.00
1602;DHT22;794;48.592;9.634;2022-12-18T18:24:18;-4.10;1.00
1602;DHT22;794;48.592;9.634;2022-12-18T18:26:49;-4.00;1.00
1602;DHT22;794;48.592;9.634;2022-12-18T18:29:21;-1.30;1.00
1602;DHT22;794;48.592;9.634;2022-12-18T18:31:50;-4.30;1.00
1602;DHT22;794;48.592;9.634;2022-12-18T18:34:19;-3.90;1.00
1602;DHT22;794;48.592;9.634;2022-12-18T18:36:47;-1.30;1.00
1602;DHT22;794;48.592;9.634;2022-12-18T18:39:18;-1.80;1.00
1602;DHT22;794;48.592;9.634;2022-12-18T18:41:48;-4.10;1.00
1602;DHT22;794;48.592;9.634;2022-12-18T18:44:19;-4.10;1.00
1602;DHT22;794;48.592;9.634;2022-12-18T18:49:15;-3.80;1.00
1602;DHT22;794;48.592;9.634;2022-12-18T18:51:42;-2.90;1.00
1602;DHT22;794;48.592;9.634;2022-12-18T18:54:10;-4.90;1.00
1602;DHT22;794;48.592;9.634;2022-12-18T18:56:38;-1.50;1.00
1602;DHT22;794;48.592;9.634;2022-12-18T18:59:07;-1.10;1.00
1602;DHT22;794;48.592;9.634;2022-12-18T19:01:35;-4.20;1.00
1602;DHT22;794;48.592;9.634;2022-12-18T19:04:02;-1.80;1.00
1602;DHT22;794;48.592;9.634;2022-12-18T19:06:31;-3.90;1.00
1602;DHT22;794;48.592;9.634;2022-12-18T19:09:00;-3.50;1.00
1602;DHT22;794;48.592;9.634;2022-12-18T19:11:34;-6.00;1.00
1602;DHT22;794;48.592;9.634;2022-12-18T19:14:20;-3.70;1.00
1602;DHT22;794;48.592;9.634;2022-12-18T19:16:48;-2.50;1.00
1602;DHT22;794;48.592;9.634;2022-12-18T19:21:45;-3.70;1.00
1602;DHT22;794;48.592;9.634;2022-12-18T19:26:40;-3.70;1.00
1602;DHT22;794;48.592;9.634;2022-12-18T19:29:09;-3.50;1.00
1602;DHT22;794;48.592;9.634;2022-12-18T19:31:39;-0.50;1.00
1602;DHT22;794;48.592;9.634;2022-12-18T19:34:07;-5.70;1.00
1602;DHT22;794;48.592;9.634;2022-12-18T19:36:36;-2.80;1.00
1602;DHT22;794;48.592;9.634;2022-12-18T19:39:09;-3.70;1.00
1602;DHT22;794;48.592;9.634;2022-12-18T19:41:40;-5.40;1.00
1602;DHT22;794;48.592;9.634;2022-12-18T19:44:10;-3.60;1.00
1602;DHT22;794;48.592;9.634;2022-12-18T19:46:40;-4.00;1.00
1602;DHT22;794;48.592;9.634;2022-12-18T19:54:02;-3.60;1.00
1602;DHT22;794;48.592;9.634;2022-12-18T19:56:32;-3.60;1.00
1602;DHT22;794;48.592;9.634;2022-12-18T19:59:00;-3.70;1.00
1602;DHT22;794;48.592;9.634;2022-12-18T20:01:31;-4.20;1.00
1602;DHT22;794;48.592;9.634;2022-12-18T20:03:59;0.00;1.00
1602;DHT22;794;48.592;9.634;2022-12-18T20:06:28;-0.10;1.00
1602;DHT22;794;48.592;9.634;2022-12-18T20:08:57;-3.50;1.00
1602;DHT22;794;48.592;9.634;2022-12-18T20:11:27;-1.20;1.00
1602;DHT22;794;48.592;9.634;2022-12-18T20:16:22;-3.00;1.00
1602;DHT22;794;48.592;9.634;2022-12-18T20:18:49;-0.70;1.00
1602;DHT22;794;48.592;9.634;2022-12-18T20:21:22;-3.70;1.00
1602;DHT22;794;48.592;9.634;2022-12-18T20:26:20;-3.80;1.00
1602;DHT22;794;48.592;9.634;2022-12-18T20:28:47;-1.00;1.00
1602;DHT22;794;48.592;9.634;2022-12-18T20:31:14;-1.70;1.00
1602;DHT22;794;48.592;9.634;2022-12-18T20:36:12;-4.00;1.00
1602;DHT22;794;48.592;9.634;2022-12-18T20:38:44;-0.70;1.00
1602;DHT22;794;48.592;9.634;2022-12-18T20:41:15;-2.00;1.00
1602;DHT22;794;48.592;9.634;2022-12-18T20:43:43;-2.60;1.00
1602;DHT22;794;48.592;9.634;2022-12-18T20:46:13;-3.80;1.00
1602;DHT22;794;48.592;9.634;2022-12-18T20:48:41;-1.40;1.00
1602;DHT22;794;48.592;9.634;2022-12-18T20:51:12;-1.00;1.00
1602;DHT22;794;48.592;9.634;2022-12-18T20:56:12;-4.10;1.00
1602;DHT22;794;48.592;9.634;2022-12-18T21:01:12;-3.90;1.00
1602;DHT22;794;48.592;9.634;2022-12-18T21:03:41;-3.90;1.00
1602;DHT22;794;48.592;9.634;2022-12-18T21:08:38;-3.70;1.00
1602;DHT22;794;48.592;9.634;2022-12-18T21:11:14;-0.20;1.00
1602;DHT22;794;48.592;9.634;2022-12-18T21:23:49;-3.30;1.00
1602;DHT22;794;48.592;9.634;2022-12-18T21:26:20;-0.70;1.00